Impacts METAR Board INFO
IDs:

KSAN - San Diego Intl Arpt, CA, US

Updated at: 1343 UTC 25 Feb 2018
Potential Impact None Slight Moderate High
Time25/01Z 25/02Z 25/03Z 25/04Z 25/05Z 25/06Z 25/07Z 25/08Z 25/09Z 25/10Z 25/11Z 25/12Z 25/13Z
VIS10 10 10 10 10 10 10 10 10 10 10 10 10
CIG-- -- -- -- -- -- -- -- -- -- -- -- --
CoverFEWCLRCLRCLRCLRFEWCLRCLRCLRCLRCLRCLRCLR
FltCatVFRVFRVFRVFRVFRVFRVFRVFRVFRVFRVFRVFRVFR
WX--------------------------
WDir3103102902802000707070800130
WSpd10 5 3 5 4 0 0 3 3 4 3 0 4
WGst-- -- -- -- -- -- -- -- -- -- -- -- --
Raw hourly METARs
KSAN 250051Z 31010KT 10SM FEW250 15/M04 A3023 RMK AO2 SLP237 T01501044
KSAN 250151Z 31005KT 10SM CLR 14/M01 A3025 RMK AO2 SLP241 T01391006
KSAN 250251Z 29003KT 10SM CLR 13/03 A3024 RMK AO2 SLP240 T01330028 50001
KSAN 250351Z 28005KT 10SM CLR 13/02 A3024 RMK AO2 SLP241 T01330022
KSAN 250451Z 02004KT 10SM CLR 12/02 A3024 RMK AO2 SLP240 T01220022
KSAN 250551Z 00000KT 10SM FEW003 12/01 A3024 RMK AO2 SLP238 FU FEW003 T01170011 10156 20117 58002
KSAN 250651Z 00000KT 10SM CLR 11/M01 A3022 RMK AO2 SLP234 T01111006
KSAN 250751Z 07003KT 10SM CLR 11/M01 A3021 RMK AO2 SLP230 T01111011 401720067
KSAN 250851Z 07003KT 10SM CLR 10/M01 A3021 RMK AO2 SLP229 T01001006 56009
KSAN 250951Z 07004KT 10SM CLR 09/M01 A3021 RMK AO2 SLP229 T00941006
KSAN 251051Z 08003KT 10SM CLR 09/M01 A3020 RMK AO2 SLP226 T00941006
KSAN 251151Z 00000KT 10SM CLR 09/M01 A3020 RMK AO2 SLP226 T00891011 10122 20089 58003
KSAN 251251Z 13004KT 10SM CLR 08/M01 A3021 RMK AO2 SLP229 T00781011